Time;durP1;ratioP1;P1;durP2;ratioP2;P2;SDS_P1;SDS_P2;PMS_P1;PMS_P2;Temp;Humidity;BMP_temperature;BMP_pressure;BME280_temperature;BME280_humidity;BME280_pressure;Samples;Min_cycle;Max_cycle;Signal;HPM_P1;HPM_P2
2021/05/08 00:02:13;;;;;;;10.23;5.30;;;14.60;75.90;;;;;;12101469;28;20048;-77
2021/05/08 00:08:00;;;;;;;7.20;5.18;;;14.60;75.40;;;;;;12133504;28;20048;-78
2021/05/08 00:13:47;;;;;;;8.50;5.15;;;14.60;75.60;;;;;;12098207;27;20052;-79
2021/05/08 00:19:35;;;;;;;10.70;5.53;;;14.70;76.50;;;;;;12099898;28;20131;-77
2021/05/08 00:25:21;;;;;;;8.43;5.30;;;14.60;76.20;;;;;;12146541;28;20051;-77
2021/05/08 00:31:08;;;;;;;7.78;5.20;;;14.60;77.10;;;;;;12109230;28;20681;-78
2021/05/08 07:00:22;;;;;;;4.15;3.03;;;13.80;99.90;;;;;;12147760;27;20414;-74
2021/05/08 07:06:09;;;;;;;4.63;2.80;;;14.30;99.90;;;;;;12073505;27;20045;-74
2021/05/08 07:11:55;;;;;;;9.35;3.20;;;15.20;99.90;;;;;;12078879;28;20664;-74
2021/05/08 07:17:43;;;;;;;3.85;3.00;;;15.60;99.90;;;;;;12082564;27;20419;-74
2021/05/08 07:23:29;;;;;;;4.90;2.83;;;16.00;99.90;;;;;;12048465;27;20494;-74
2021/05/08 07:29:18;;;;;;;4.95;2.70;;;16.20;99.90;;;;;;12072933;28;20045;-73
2021/05/08 07:35:06;;;;;;;4.38;2.42;;;16.10;99.90;;;;;;12077673;27;20114;-76
2021/05/08 07:40:53;;;;;;;6.78;2.92;;;16.20;99.90;;;;;;12041519;28;20056;-73
2021/05/08 07:46:39;;;;;;;6.22;2.22;;;16.40;99.90;;;;;;12040452;28;21139;-74
2021/05/08 07:52:26;;;;;;;4.93;2.33;;;16.60;99.90;;;;;;12046585;28;20109;-73
2021/05/08 07:58:13;;;;;;;3.90;2.22;;;16.50;99.90;;;;;;12052755;28;20056;-74
2021/05/08 08:03:59;;;;;;;6.05;2.42;;;16.50;99.90;;;;;;12066525;28;20062;-74
2021/05/08 08:09:47;;;;;;;16.48;3.25;;;16.50;99.90;;;;;;12054645;28;20411;-77
2021/05/08 08:15:33;;;;;;;5.15;2.88;;;16.30;99.90;;;;;;12044056;28;20411;-78
2021/05/08 08:21:19;;;;;;;9.15;3.03;;;16.30;99.90;;;;;;12043037;28;20049;-78
2021/05/08 08:27:07;;;;;;;8.02;2.83;;;16.40;99.90;;;;;;12039534;28;20040;-77
2021/05/08 08:32:53;;;;;;;8.70;3.30;;;16.60;99.90;;;;;;12044556;28;20048;-79
2021/05/08 08:38:40;;;;;;;8.05;3.70;;;16.50;99.90;;;;;;12041640;28;20055;-78
2021/05/08 08:44:27;;;;;;;11.27;4.10;;;16.50;99.90;;;;;;12032084;28;20249;-79
2021/05/08 08:50:15;;;;;;;10.63;4.88;;;16.70;99.90;;;;;;12034694;28;20059;-79
2021/05/08 08:56:03;;;;;;;9.88;4.80;;;16.70;99.90;;;;;;12041657;28;20055;-76
2021/05/08 09:01:51;;;;;;;22.58;5.47;;;16.90;99.90;;;;;;12035818;28;20686;-79
2021/05/08 09:07:41;;;;;;;9.63;4.60;;;17.00;99.90;;;;;;12011146;28;20080;-74
2021/05/08 09:13:28;;;;;;;9.60;5.05;;;17.00;99.90;;;;;;12005309;28;20044;-74
2021/05/08 09:19:21;;;;;;;11.43;5.38;;;17.50;99.90;;;;;;12025980;28;20049;-74
2021/05/08 09:25:11;;;;;;;8.80;4.35;;;17.80;99.90;;;;;;12022180;28;20575;-74
2021/05/08 09:30:58;;;;;;;11.60;4.43;;;18.00;99.90;;;;;;12039189;28;20565;-74
2021/05/08 09:36:54;;;;;;;13.38;4.57;;;18.20;99.90;;;;;;12029379;28;20056;-74
2021/05/08 09:42:45;;;;;;;14.07;5.20;;;18.20;99.90;;;;;;12037403;28;20048;-78
2021/05/08 09:48:32;;;;;;;14.40;5.88;;;18.00;99.90;;;;;;12036469;28;20472;-74
2021/05/08 09:54:20;;;;;;;9.30;4.55;;;18.00;99.90;;;;;;12027115;28;20495;-73
2021/05/08 10:00:44;;;;;;;13.85;5.53;;;18.40;99.90;;;;;;12032275;28;20041;-73
2021/05/08 10:06:31;;;;;;;12.38;5.47;;;18.40;99.90;;;;;;12029504;28;20052;-74
2021/05/08 10:12:19;;;;;;;18.40;5.50;;;18.20;99.90;;;;;;12033668;28;20044;-73
2021/05/08 10:18:08;;;;;;;8.63;4.88;;;18.10;99.90;;;;;;12015697;28;20074;-73
2021/05/08 10:23:54;;;;;;;8.77;5.18;;;18.30;99.90;;;;;;11976309;28;20053;-74
2021/05/08 10:29:44;;;;;;;13.13;4.78;;;18.60;99.90;;;;;;11990854;28;20443;-73
2021/05/08 10:35:41;;;;;;;12.23;5.07;;;18.50;99.90;;;;;;12014971;27;20450;-74
2021/05/08 10:41:49;;;;;;;11.93;4.72;;;18.40;99.90;;;;;;12014259;28;20052;-73
2021/05/08 10:54:04;;;;;;;20.05;7.15;;;18.30;99.90;;;;;;12124886;27;20572;-74
2021/05/08 11:00:34;;;;;;;16.83;5.50;;;18.80;99.90;;;;;;12043917;28;20053;-74
2021/05/08 11:06:21;;;;;;;9.77;3.97;;;19.20;99.90;;;;;;12040671;28;20049;-74
2021/05/08 11:12:09;;;;;;;9.57;4.15;;;18.90;99.90;;;;;;12054946;28;20040;-74
2021/05/08 11:18:01;;;;;;;11.40;4.60;;;19.10;99.90;;;;;;12089398;28;20052;-74
2021/05/08 11:23:49;;;;;;;10.15;4.30;;;19.10;99.90;;;;;;12062465;28;20041;-74
2021/05/08 11:29:36;;;;;;;7.38;3.80;;;19.00;99.90;;;;;;12046884;28;20061;-74
2021/05/08 11:35:29;;;;;;;13.02;4.30;;;19.30;99.90;;;;;;12041394;28;20055;-74
2021/05/08 11:41:19;;;;;;;17.73;4.60;;;20.00;99.90;;;;;;12043759;28;20044;-74
2021/05/08 11:53:16;;;;;;;12.68;4.55;;;20.20;99.90;;;;;;12097179;28;20044;-73
2021/05/08 11:59:04;;;;;;;19.00;9.23;;;19.70;99.90;;;;;;12070278;28;20044;-74
2021/05/08 12:04:53;;;;;;;11.13;3.97;;;19.90;99.90;;;;;;12050408;28;20140;-74
2021/05/08 12:10:42;;;;;;;14.30;4.60;;;19.90;99.90;;;;;;12052569;28;20047;-74
2021/05/08 12:16:28;;;;;;;7.97;3.38;;;20.00;99.90;;;;;;12060769;28;20423;-75
2021/05/08 12:22:16;;;;;;;9.93;3.92;;;20.40;99.90;;;;;;12055458;28;20041;-74
2021/05/08 12:28:18;;;;;;;7.80;3.90;;;20.80;98.30;;;;;;12054291;28;20048;-74
2021/05/08 12:34:08;;;;;;;7.50;3.72;;;20.80;97.40;;;;;;12054834;28;20136;-74
2021/05/08 12:39:55;;;;;;;6.63;2.92;;;20.70;97.30;;;;;;12059745;28;20052;-74
2021/05/08 12:45:59;;;;;;;7.82;2.45;;;20.50;96.60;;;;;;12054636;28;20056;-74
2021/05/08 12:51:46;;;;;;;9.93;3.67;;;20.70;95.30;;;;;;12014222;28;20126;-74
2021/05/08 12:57:35;;;;;;;7.95;3.22;;;20.70;94.10;;;;;;12023668;28;20442;-74
2021/05/08 13:03:25;;;;;;;5.72;2.88;;;20.80;95.00;;;;;;12055198;28;20056;-74
2021/05/08 13:09:20;;;;;;;7.85;3.13;;;21.30;94.00;;;;;;12054271;28;20057;-77
2021/05/08 13:15:13;;;;;;;8.00;3.13;;;21.40;93.70;;;;;;12049451;28;20549;-77
2021/05/08 13:20:59;;;;;;;7.72;3.53;;;21.30;94.00;;;;;;12052655;28;20048;-78
2021/05/08 13:26:46;;;;;;;6.90;2.78;;;21.30;92.00;;;;;;12051850;28;20615;-77
2021/05/08 13:32:33;;;;;;;6.00;2.78;;;20.80;93.30;;;;;;12038879;28;20059;-77
2021/05/08 13:38:19;;;;;;;7.35;3.47;;;20.80;94.40;;;;;;12011779;28;20045;-77
2021/05/08 13:44:06;;;;;;;7.10;2.40;;;21.60;91.70;;;;;;12054913;28;20070;-76
2021/05/08 13:49:56;;;;;;;7.40;1.95;;;21.90;87.80;;;;;;12013601;28;20060;-77
2021/05/08 13:55:43;;;;;;;3.70;1.70;;;22.00;87.10;;;;;;12054231;28;20060;-78
2021/05/08 14:01:29;;;;;;;4.97;2.05;;;22.00;83.90;;;;;;12043812;28;20053;-78
2021/05/08 14:07:16;;;;;;;6.38;2.03;;;22.00;85.30;;;;;;12027606;28;20526;-78
2021/05/08 14:13:03;;;;;;;6.55;2.50;;;22.30;83.20;;;;;;12039116;28;20056;-78
2021/05/08 14:18:49;;;;;;;4.65;2.40;;;22.40;81.60;;;;;;12011847;28;20064;-78
2021/05/08 14:24:36;;;;;;;4.20;2.40;;;22.40;82.70;;;;;;12010417;28;20654;-78
2021/05/08 14:30:23;;;;;;;6.72;2.40;;;22.60;81.80;;;;;;12024819;28;20085;-78
2021/05/08 14:36:09;;;;;;;4.10;2.13;;;22.80;80.70;;;;;;12035985;28;20040;-78
2021/05/08 14:41:57;;;;;;;7.93;2.53;;;23.00;80.00;;;;;;12046577;28;20052;-77
2021/05/08 14:47:43;;;;;;;5.88;2.22;;;23.00;78.40;;;;;;12050046;28;20525;-77
2021/05/08 14:53:29;;;;;;;5.82;2.40;;;23.00;78.50;;;;;;12019916;28;20534;-77
2021/05/08 14:59:18;;;;;;;4.28;2.45;;;23.00;77.80;;;;;;12032165;28;20056;-77
2021/05/08 15:05:05;;;;;;;5.28;1.80;;;23.10;77.90;;;;;;12032569;28;20045;-78
2021/05/08 15:10:52;;;;;;;6.97;2.17;;;22.80;78.40;;;;;;12008944;28;20064;-78
2021/05/08 15:16:39;;;;;;;8.32;2.60;;;23.60;78.00;;;;;;12034907;28;20053;-78
2021/05/08 15:22:25;;;;;;;11.43;2.85;;;23.60;76.20;;;;;;12005825;28;20071;-77
2021/05/08 15:28:11;;;;;;;5.68;2.72;;;23.80;76.20;;;;;;12017593;28;20076;-74
2021/05/08 15:33:59;;;;;;;6.03;2.28;;;23.90;74.30;;;;;;12050993;28;20056;-73
2021/05/08 15:39:45;;;;;;;6.43;2.05;;;24.30;71.80;;;;;;12055950;28;20058;-77
2021/05/08 15:45:31;;;;;;;6.32;2.08;;;24.90;72.00;;;;;;12065208;28;20040;-77
2021/05/08 15:51:19;;;;;;;3.90;2.15;;;25.40;69.10;;;;;;12024413;28;20519;-78
2021/05/08 15:57:08;;;;;;;5.70;2.70;;;25.20;67.40;;;;;;12014575;28;20055;-78
2021/05/08 16:02:54;;;;;;;7.05;2.35;;;24.80;67.30;;;;;;12064600;28;20532;-78
2021/05/08 16:08:41;;;;;;;9.05;2.40;;;24.70;68.90;;;;;;12050735;28;20059;-78
2021/05/08 16:14:28;;;;;;;6.45;2.25;;;26.90;63.90;;;;;;12061010;28;20041;-78
2021/05/08 16:20:15;;;;;;;4.93;1.77;;;28.60;58.60;;;;;;12066016;28;20048;-78
2021/05/08 16:26:03;;;;;;;5.25;2.08;;;29.40;55.70;;;;;;12065435;28;20504;-76
2021/05/08 16:31:49;;;;;;;5.75;2.10;;;28.20;56.10;;;;;;12061659;28;20036;-78
2021/05/08 16:37:36;;;;;;;6.28;1.80;;;28.60;55.00;;;;;;12062420;28;20057;-77
2021/05/08 16:43:23;;;;;;;5.13;1.80;;;29.10;54.30;;;;;;12064129;28;20049;-74
2021/05/08 16:49:10;;;;;;;4.15;2.17;;;30.40;51.60;;;;;;12060729;28;20076;-74
2021/05/08 16:54:58;;;;;;;4.72;1.83;;;31.70;49.70;;;;;;12059947;28;20106;-74
2021/05/08 17:00:46;;;;;;;5.03;1.80;;;32.80;47.60;;;;;;12057780;28;20056;-74
2021/05/08 17:06:33;;;;;;;3.80;1.80;;;31.30;48.00;;;;;;12056426;28;20055;-74
2021/05/08 17:12:20;;;;;;;6.15;2.03;;;31.80;46.80;;;;;;12014333;28;20117;-74
2021/05/08 17:18:08;;;;;;;4.78;1.80;;;30.40;49.20;;;;;;12030156;28;20061;-73
2021/05/08 17:23:54;;;;;;;4.45;1.73;;;30.40;48.30;;;;;;12039405;28;20705;-75
2021/05/08 17:29:43;;;;;;;3.22;2.00;;;30.90;47.80;;;;;;12059641;28;20048;-75
2021/05/08 17:35:31;;;;;;;7.95;3.60;;;31.90;46.40;;;;;;12053410;28;20040;-73
2021/05/08 17:41:17;;;;;;;7.38;2.25;;;31.90;46.00;;;;;;12056659;28;20062;-75
2021/05/08 17:47:04;;;;;;;10.18;5.25;;;31.60;46.10;;;;;;12029460;28;20507;-75
2021/05/08 17:52:51;;;;;;;3.28;1.95;;;31.00;46.80;;;;;;12028854;28;20056;-74
2021/05/08 17:58:37;;;;;;;4.28;1.77;;;29.20;49.30;;;;;;12046193;28;20094;-74
2021/05/08 18:04:24;;;;;;;2.88;1.80;;;27.60;51.90;;;;;;12052239;28;20095;-73
2021/05/08 18:10:13;;;;;;;5.32;1.63;;;26.90;54.00;;;;;;12052688;28;20048;-73
2021/05/08 18:15:59;;;;;;;6.43;2.10;;;26.00;55.70;;;;;;12051027;28;20059;-74
2021/05/08 18:21:46;;;;;;;4.50;2.40;;;25.40;57.50;;;;;;12053172;28;20048;-75
2021/05/08 18:27:35;;;;;;;4.10;2.00;;;24.90;58.90;;;;;;12050622;28;20512;-74
2021/05/08 18:33:22;;;;;;;8.65;2.50;;;24.60;61.60;;;;;;12016234;28;20049;-74
2021/05/08 18:39:09;;;;;;;5.25;2.38;;;24.40;63.70;;;;;;12035082;28;20418;-74
2021/05/08 18:44:59;;;;;;;4.53;2.53;;;24.30;64.70;;;;;;12015054;28;20458;-74
2021/05/08 18:50:45;;;;;;;6.35;2.50;;;23.90;67.30;;;;;;12013922;28;20072;-74
2021/05/08 18:56:32;;;;;;;8.20;2.42;;;23.50;69.10;;;;;;12046864;28;20055;-74
2021/05/08 19:02:19;;;;;;;6.13;2.53;;;23.10;70.40;;;;;;12048290;28;20543;-74
2021/05/08 19:08:05;;;;;;;3.55;2.65;;;22.70;71.90;;;;;;12000711;28;20052;-73
2021/05/08 19:13:52;;;;;;;5.97;2.42;;;22.30;73.60;;;;;;12014312;28;20053;-75
2021/05/08 19:19:39;;;;;;;10.82;2.75;;;21.90;75.00;;;;;;12065132;28;20079;-74
2021/05/08 19:25:25;;;;;;;4.53;2.70;;;21.70;76.50;;;;;;12034498;28;20049;-73
2021/05/08 19:31:12;;;;;;;6.95;2.78;;;21.30;77.90;;;;;;12018923;28;20056;-74
2021/05/08 19:36:59;;;;;;;3.70;2.58;;;21.20;78.70;;;;;;12053076;28;20055;-77
2021/05/08 19:42:46;;;;;;;5.68;2.83;;;21.00;79.40;;;;;;12058221;28;20059;-79
2021/05/08 19:48:33;;;;;;;8.07;3.08;;;20.90;79.90;;;;;;12062815;28;20067;-77
2021/05/08 19:54:20;;;;;;;7.88;3.30;;;20.70;80.50;;;;;;12071489;28;20076;-74
2021/05/08 20:00:11;;;;;;;4.90;2.85;;;20.50;81.30;;;;;;12060429;28;20048;-74
2021/05/08 20:05:57;;;;;;;5.32;2.80;;;20.40;82.10;;;;;;12059541;28;20040;-73
2021/05/08 20:11:44;;;;;;;7.18;3.00;;;20.30;83.20;;;;;;12055213;28;21025;-74
2021/05/08 20:17:31;;;;;;;4.85;2.78;;;20.30;83.70;;;;;;12064231;28;20079;-73
2021/05/08 20:23:17;;;;;;;9.48;3.60;;;20.20;84.20;;;;;;12062134;28;20048;-74
2021/05/08 20:29:04;;;;;;;7.60;3.42;;;20.10;84.80;;;;;;12057493;28;20041;-75
2021/05/08 20:34:52;;;;;;;4.28;3.28;;;20.10;85.70;;;;;;12059058;28;20419;-74
2021/05/08 20:40:38;;;;;;;4.63;3.22;;;20.00;85.80;;;;;;12036842;28;20719;-74
2021/05/08 20:46:28;;;;;;;17.42;3.83;;;19.90;86.30;;;;;;12013735;28;20053;-78
2021/05/08 20:52:14;;;;;;;6.50;3.33;;;19.80;87.10;;;;;;12011012;28;20423;-78
2021/05/08 20:58:00;;;;;;;8.13;3.60;;;19.80;87.10;;;;;;12014210;28;20199;-78
2021/05/08 21:03:49;;;;;;;8.52;3.80;;;19.70;87.90;;;;;;12010910;28;20053;-79
2021/05/08 21:09:36;;;;;;;7.10;3.65;;;19.60;88.40;;;;;;12023965;28;20494;-78
2021/05/08 21:15:23;;;;;;;11.98;4.82;;;19.60;88.10;;;;;;12023072;28;20135;-79
2021/05/08 21:21:11;;;;;;;7.55;4.25;;;19.50;89.30;;;;;;12041012;28;20555;-78
2021/05/08 21:26:58;;;;;;;8.82;4.15;;;19.40;89.90;;;;;;12060982;28;20102;-78
2021/05/08 21:32:45;;;;;;;9.30;4.55;;;19.20;90.30;;;;;;12047239;28;20041;-78
2021/05/08 21:38:33;;;;;;;7.03;4.05;;;19.20;90.40;;;;;;12045681;28;20063;-78
2021/05/08 21:44:19;;;;;;;10.20;5.20;;;19.20;90.50;;;;;;12066707;28;20067;-78
2021/05/08 21:50:07;;;;;;;10.25;5.15;;;19.20;90.60;;;;;;12004575;28;20062;-74
2021/05/08 21:55:54;;;;;;;10.32;4.68;;;19.10;90.50;;;;;;12021414;28;20044;-74
2021/05/08 22:01:40;;;;;;;12.48;5.47;;;19.10;90.60;;;;;;12058659;28;20048;-73
2021/05/08 22:07:26;;;;;;;7.85;5.35;;;19.00;91.00;;;;;;12051997;28;20205;-73
2021/05/08 22:13:14;;;;;;;10.68;5.30;;;19.10;90.80;;;;;;12054633;28;20074;-73
2021/05/08 22:19:00;;;;;;;8.73;5.30;;;19.00;90.60;;;;;;12051380;28;20049;-73
2021/05/08 22:24:47;;;;;;;7.80;5.10;;;19.00;90.90;;;;;;12049882;28;20048;-74
2021/05/08 22:30:34;;;;;;;14.85;7.38;;;19.00;90.90;;;;;;12047579;28;20051;-73
2021/05/08 22:36:21;;;;;;;13.75;6.60;;;18.90;90.80;;;;;;12057006;28;20051;-73
2021/05/08 22:42:08;;;;;;;10.55;5.75;;;18.90;91.10;;;;;;12052682;28;20048;-74
2021/05/08 22:47:55;;;;;;;11.48;6.38;;;18.80;91.40;;;;;;12052540;28;20612;-73
2021/05/08 22:53:44;;;;;;;13.25;6.90;;;18.80;92.00;;;;;;12045842;28;20049;-74
2021/05/08 22:59:30;;;;;;;13.20;7.20;;;18.80;91.90;;;;;;11993807;28;20051;-73
2021/05/08 23:05:18;;;;;;;12.90;6.50;;;18.80;91.90;;;;;;11999959;28;20508;-73
2021/05/08 23:11:05;;;;;;;13.77;8.10;;;18.80;92.00;;;;;;12029099;28;20067;-73
2021/05/08 23:16:51;;;;;;;13.23;6.93;;;18.70;92.20;;;;;;12063889;28;20511;-73
2021/05/08 23:22:38;;;;;;;18.83;7.68;;;18.70;92.50;;;;;;12049211;28;20500;-74
2021/05/08 23:28:25;;;;;;;15.50;6.75;;;18.60;92.40;;;;;;12047208;28;20074;-74
2021/05/08 23:34:11;;;;;;;11.68;6.95;;;18.60;92.30;;;;;;12053929;28;20060;-74
2021/05/08 23:39:58;;;;;;;16.92;7.63;;;18.50;92.70;;;;;;12049269;28;20060;-75
2021/05/08 23:45:45;;;;;;;13.00;8.23;;;18.50;92.70;;;;;;12048409;28;20063;-74
2021/05/08 23:51:32;;;;;;;14.07;7.40;;;18.50;92.80;;;;;;12050765;28;20052;-74
2021/05/08 23:57:20;;;;;;;12.50;6.20;;;18.40;92.80;;;;;;12054084;28;20332;-74
